Time;durP1;ratioP1;P1;durP2;ratioP2;P2;SDS_P1;SDS_P2;PMS_P1;PMS_P2;Temp;Humidity;BMP_temperature;BMP_pressure;BME280_temperature;BME280_humidity;BME280_pressure;Samples;Min_cycle;Max_cycle;Signal;HPM_P1;HPM_P2
2021/06/24 00:00:55;;;;;;;7.15;5.28;;;20.40;99.90;;;;;;5089063;28;20050;-62
2021/06/24 00:03:31;;;;;;;10.77;6.38;;;20.40;99.90;;;;;;5071358;28;20097;-62
2021/06/24 00:05:57;;;;;;;9.80;5.05;;;20.40;99.90;;;;;;5070700;28;20062;-60
2021/06/24 00:08:24;;;;;;;9.70;6.10;;;20.30;99.90;;;;;;5089236;28;20450;-59
2021/06/24 00:10:51;;;;;;;7.45;6.47;;;20.30;99.90;;;;;;5089266;28;20032;-60
2021/06/24 00:13:18;;;;;;;16.58;6.38;;;20.20;99.90;;;;;;5088515;28;20454;-61
2021/06/24 00:15:44;;;;;;;9.57;6.40;;;20.10;99.90;;;;;;5089325;28;20028;-60
2021/06/24 00:18:10;;;;;;;8.40;6.88;;;20.20;99.90;;;;;;5088884;28;20047;-60
2021/06/24 00:20:37;;;;;;;14.88;6.75;;;20.10;99.90;;;;;;5070976;28;20048;-60
2021/06/24 00:23:03;;;;;;;8.40;6.03;;;20.10;99.90;;;;;;5070180;28;20047;-60
2021/06/24 00:25:29;;;;;;;8.18;6.13;;;20.10;99.90;;;;;;5090788;28;20020;-60
2021/06/24 00:27:55;;;;;;;9.35;6.32;;;20.10;99.90;;;;;;5092669;28;20036;-61
2021/06/24 00:30:21;;;;;;;8.70;6.32;;;20.00;99.90;;;;;;5093252;28;20353;-60
2021/06/24 00:32:46;;;;;;;8.80;6.30;;;19.90;99.90;;;;;;5093394;28;20111;-61
2021/06/24 00:35:14;;;;;;;9.57;7.10;;;19.90;99.90;;;;;;5074524;28;20028;-60
2021/06/24 00:37:40;;;;;;;8.00;5.93;;;20.00;99.90;;;;;;5093204;28;20047;-61
2021/06/24 00:40:09;;;;;;;8.80;6.03;;;20.00;99.90;;;;;;5092094;28;20085;-61
2021/06/24 00:42:36;;;;;;;9.15;5.85;;;20.00;99.90;;;;;;5074557;28;20047;-61
2021/06/24 00:45:03;;;;;;;10.23;6.10;;;20.10;99.90;;;;;;5092373;28;20028;-62
2021/06/24 00:47:28;;;;;;;8.30;6.38;;;20.00;99.90;;;;;;5074306;28;20123;-62
2021/06/24 00:49:54;;;;;;;11.82;6.93;;;19.90;99.90;;;;;;5092384;28;20135;-61
2021/06/24 00:52:20;;;;;;;15.90;6.68;;;20.00;99.90;;;;;;5092940;28;20068;-66
2021/06/24 00:54:46;;;;;;;15.07;7.35;;;20.00;99.90;;;;;;5074319;28;20120;-60
2021/06/24 00:57:11;;;;;;;12.85;7.07;;;20.00;99.90;;;;;;5073768;28;20119;-61
2021/06/24 00:59:37;;;;;;;10.20;6.70;;;19.90;99.90;;;;;;5092585;28;20034;-61
2021/06/24 01:02:05;;;;;;;9.40;6.25;;;19.90;99.90;;;;;;5092233;28;20033;-61
2021/06/24 01:04:35;;;;;;;8.93;6.82;;;19.90;99.90;;;;;;5092677;28;20059;-62
2021/06/24 01:07:03;;;;;;;10.13;6.75;;;19.90;99.90;;;;;;5073679;28;20040;-62
2021/06/24 01:09:28;;;;;;;9.80;6.05;;;19.90;99.90;;;;;;5092664;28;20043;-62
2021/06/24 01:11:54;;;;;;;11.07;6.13;;;19.90;99.90;;;;;;5073829;28;20020;-68
2021/06/24 01:14:25;;;;;;;9.70;6.47;;;19.90;99.90;;;;;;5092975;28;20107;-61
2021/06/24 01:16:54;;;;;;;15.93;7.20;;;19.90;99.90;;;;;;5074352;28;20027;-63
2021/06/24 01:19:19;;;;;;;7.65;6.85;;;19.90;99.90;;;;;;5092107;28;20048;-62
2021/06/24 01:21:46;;;;;;;13.15;7.53;;;20.00;99.90;;;;;;5091000;28;20028;-62
2021/06/24 01:24:13;;;;;;;10.85;6.95;;;19.90;99.90;;;;;;5090547;28;20060;-62
2021/06/24 01:26:41;;;;;;;9.38;5.97;;;19.70;99.90;;;;;;5072904;28;20036;-61
2021/06/24 01:29:08;;;;;;;8.02;6.28;;;19.70;99.90;;;;;;5090585;28;20043;-62
2021/06/24 01:31:33;;;;;;;11.98;6.70;;;19.70;99.90;;;;;;5091163;28;20154;-61
2021/06/24 01:34:00;;;;;;;9.25;6.40;;;19.70;99.90;;;;;;5090949;28;20106;-61
2021/06/24 01:36:27;;;;;;;8.40;5.65;;;19.70;99.90;;;;;;5090891;28;20479;-62
2021/06/24 01:38:53;;;;;;;6.78;5.45;;;19.70;99.90;;;;;;5073155;28;20094;-61
2021/06/24 01:41:19;;;;;;;8.50;5.90;;;19.80;99.90;;;;;;5091276;28;20020;-61
2021/06/24 01:43:46;;;;;;;9.02;5.80;;;19.90;99.90;;;;;;5091627;28;20054;-61
2021/06/24 01:46:12;;;;;;;7.13;5.10;;;19.80;99.90;;;;;;5072575;28;20050;-62
2021/06/24 01:48:39;;;;;;;8.80;5.72;;;19.90;99.90;;;;;;5090922;28;20047;-61
2021/06/24 01:51:05;;;;;;;7.75;6.10;;;19.80;99.90;;;;;;5090624;28;20165;-61
2021/06/24 01:53:31;;;;;;;8.57;6.32;;;19.80;99.90;;;;;;5091267;28;20099;-61
2021/06/24 01:55:57;;;;;;;10.15;6.25;;;19.80;99.90;;;;;;5091008;28;20068;-62
2021/06/24 01:58:24;;;;;;;7.78;6.82;;;19.50;99.90;;;;;;5091335;28;20394;-61
2021/06/24 02:00:58;;;;;;;14.65;7.40;;;19.50;99.90;;;;;;5072716;28;20048;-61
2021/06/24 02:03:25;;;;;;;11.68;7.15;;;19.50;99.90;;;;;;5091478;28;20392;-61
2021/06/24 02:05:56;;;;;;;10.40;7.30;;;19.40;99.90;;;;;;5091184;28;20051;-61
2021/06/24 02:08:28;;;;;;;9.98;6.43;;;19.40;99.90;;;;;;5091143;28;20036;-61
2021/06/24 02:10:56;;;;;;;8.40;6.60;;;19.50;99.90;;;;;;5090990;28;20452;-61
2021/06/24 02:13:23;;;;;;;10.15;6.95;;;19.50;99.90;;;;;;5091127;28;20477;-61
2021/06/24 02:15:49;;;;;;;11.50;7.50;;;19.50;99.90;;;;;;5091126;28;20059;-61
2021/06/24 02:18:15;;;;;;;6.97;5.90;;;19.50;99.90;;;;;;5090642;28;20538;-62
2021/06/24 02:20:41;;;;;;;11.15;6.07;;;19.40;99.90;;;;;;5053833;28;1075202;-61
2021/06/24 02:23:08;;;;;;;11.98;7.32;;;19.40;99.90;;;;;;5091081;28;20119;-61
2021/06/24 02:25:35;;;;;;;12.43;6.80;;;19.40;99.90;;;;;;5092080;28;20093;-61
2021/06/24 02:28:01;;;;;;;10.80;7.03;;;19.50;99.90;;;;;;5091089;28;20173;-61
2021/06/24 02:30:29;;;;;;;8.93;6.22;;;19.40;99.90;;;;;;5091730;28;20059;-61
2021/06/24 02:32:56;;;;;;;10.55;6.45;;;19.30;99.90;;;;;;5091383;28;20055;-61
2021/06/24 02:35:23;;;;;;;9.07;6.18;;;19.40;99.90;;;;;;5091419;28;20099;-61
2021/06/24 02:37:50;;;;;;;10.90;6.60;;;19.40;99.90;;;;;;5073318;28;20043;-61
2021/06/24 02:40:17;;;;;;;7.32;6.28;;;19.40;99.90;;;;;;5091113;28;20020;-61
2021/06/24 02:42:44;;;;;;;9.18;7.28;;;19.50;99.90;;;;;;5091531;28;20028;-61
2021/06/24 02:45:11;;;;;;;12.10;6.70;;;19.40;99.90;;;;;;5072566;28;20115;-62
2021/06/24 02:47:37;;;;;;;9.50;6.75;;;19.40;99.90;;;;;;5090326;28;20032;-61
2021/06/24 02:50:05;;;;;;;13.52;6.82;;;19.40;99.90;;;;;;5091199;28;20028;-62
2021/06/24 02:52:31;;;;;;;12.75;8.00;;;19.40;99.90;;;;;;5091037;28;20020;-62
2021/06/24 02:54:56;;;;;;;11.18;7.03;;;19.40;99.90;;;;;;5090733;28;20024;-61
2021/06/24 02:57:23;;;;;;;8.00;6.45;;;19.30;99.90;;;;;;5090532;28;20024;-62
2021/06/24 02:59:49;;;;;;;8.82;6.95;;;19.30;99.90;;;;;;5090788;28;20039;-61
2021/06/24 03:02:15;;;;;;;8.88;6.88;;;19.30;99.90;;;;;;5072224;28;20024;-61
2021/06/24 03:04:41;;;;;;;9.68;7.53;;;19.40;99.90;;;;;;5072776;28;20057;-61
2021/06/24 03:07:07;;;;;;;12.95;6.90;;;19.30;99.90;;;;;;5090231;28;20349;-61
2021/06/24 03:09:33;;;;;;;7.80;6.32;;;19.30;99.90;;;;;;5072541;28;20077;-61
2021/06/24 03:11:59;;;;;;;9.10;6.78;;;19.30;99.90;;;;;;5090638;28;20024;-62
2021/06/24 03:14:25;;;;;;;10.25;6.97;;;19.20;99.90;;;;;;5072323;28;20484;-61
2021/06/24 03:16:50;;;;;;;10.82;6.97;;;19.20;99.90;;;;;;5090351;28;20056;-62
2021/06/24 03:19:17;;;;;;;12.63;7.47;;;19.20;99.90;;;;;;5090125;28;20366;-62
2021/06/24 03:21:42;;;;;;;9.90;6.68;;;19.20;99.90;;;;;;5090661;28;20115;-61
2021/06/24 03:24:08;;;;;;;14.50;7.47;;;19.30;99.90;;;;;;5089721;28;20565;-62
2021/06/24 03:26:35;;;;;;;12.10;7.15;;;19.30;99.90;;;;;;5090073;28;20373;-61
2021/06/24 03:29:02;;;;;;;11.57;7.45;;;19.30;99.90;;;;;;5070627;28;20028;-64
2021/06/24 03:31:28;;;;;;;9.98;6.65;;;19.40;99.90;;;;;;5090044;28;20026;-61
2021/06/24 03:33:53;;;;;;;11.35;6.88;;;19.30;99.90;;;;;;5089895;28;20028;-61
2021/06/24 03:36:20;;;;;;;11.60;6.50;;;19.30;99.90;;;;;;5089159;28;20024;-62
2021/06/24 03:38:46;;;;;;;10.25;6.70;;;19.30;99.90;;;;;;5089852;28;20422;-62
2021/06/24 03:41:15;;;;;;;11.68;7.03;;;19.20;99.90;;;;;;5089206;28;20119;-61
2021/06/24 03:43:41;;;;;;;10.45;7.18;;;19.20;99.90;;;;;;5071587;28;20107;-62
2021/06/24 03:46:06;;;;;;;7.70;6.63;;;19.20;99.90;;;;;;5089027;28;20202;-62
2021/06/24 03:48:32;;;;;;;9.23;7.50;;;19.30;99.90;;;;;;5089334;28;20139;-61
2021/06/24 03:50:58;;;;;;;10.43;7.90;;;19.20;99.90;;;;;;5089633;28;20067;-62
2021/06/24 03:53:24;;;;;;;9.52;7.47;;;19.30;99.90;;;;;;5089000;28;20028;-62
2021/06/24 03:55:49;;;;;;;10.75;6.50;;;19.30;99.90;;;;;;5089799;28;20485;-62
2021/06/24 03:58:15;;;;;;;12.30;7.65;;;19.30;99.90;;;;;;5088975;28;20036;-62
2021/06/24 04:00:43;;;;;;;7.57;6.80;;;19.30;99.90;;;;;;5089418;28;20092;-60
2021/06/24 04:03:10;;;;;;;11.77;7.18;;;19.30;99.90;;;;;;5089040;28;20071;-61
2021/06/24 04:05:36;;;;;;;12.55;7.25;;;19.30;99.90;;;;;;5089443;28;20028;-62
2021/06/24 04:08:04;;;;;;;11.00;7.25;;;19.20;99.90;;;;;;5088464;28;20043;-62
2021/06/24 04:10:31;;;;;;;8.93;6.88;;;19.20;99.90;;;;;;5089391;28;20028;-62
2021/06/24 04:12:58;;;;;;;13.43;8.45;;;19.20;99.90;;;;;;5071334;28;20029;-61
2021/06/24 04:15:25;;;;;;;11.07;7.43;;;19.20;99.90;;;;;;5070622;28;20529;-61
2021/06/24 04:17:51;;;;;;;17.00;7.63;;;19.10;99.90;;;;;;5071005;28;20043;-60
2021/06/24 04:20:18;;;;;;;8.88;6.88;;;19.10;99.90;;;;;;5085863;28;20055;-62
2021/06/24 04:22:44;;;;;;;11.75;7.40;;;19.10;99.90;;;;;;5088606;28;20028;-61
2021/06/24 04:25:11;;;;;;;11.65;7.00;;;19.10;99.90;;;;;;5069957;28;20126;-63
2021/06/24 04:27:37;;;;;;;12.10;7.10;;;19.10;99.90;;;;;;5070414;28;20059;-61
2021/06/24 04:30:05;;;;;;;12.75;7.22;;;19.20;99.90;;;;;;5088285;28;20438;-65
2021/06/24 04:32:31;;;;;;;12.38;7.07;;;19.20;99.90;;;;;;5088816;28;20046;-61
2021/06/24 04:34:56;;;;;;;12.18;7.72;;;19.20;99.90;;;;;;5070667;28;20032;-60
2021/06/24 04:37:22;;;;;;;13.18;7.57;;;19.20;99.90;;;;;;5088825;28;20060;-64
2021/06/24 04:39:48;;;;;;;8.93;7.07;;;19.20;99.90;;;;;;5070719;28;20469;-62
2021/06/24 04:42:14;;;;;;;11.07;7.53;;;19.20;99.90;;;;;;5088693;28;20101;-61
2021/06/24 04:44:40;;;;;;;8.90;6.78;;;19.10;99.90;;;;;;5089238;28;20108;-61
2021/06/24 04:47:06;;;;;;;11.48;7.13;;;19.20;99.90;;;;;;5088525;28;20071;-61
2021/06/24 04:49:32;;;;;;;11.68;7.50;;;19.10;99.90;;;;;;5089293;28;20028;-61
2021/06/24 04:51:57;;;;;;;11.80;7.43;;;19.10;99.90;;;;;;5088612;28;20122;-60
2021/06/24 04:54:23;;;;;;;12.00;8.30;;;19.20;99.90;;;;;;5088081;28;20107;-60
2021/06/24 04:56:49;;;;;;;13.30;7.65;;;19.20;99.90;;;;;;5089371;28;20082;-61
2021/06/24 04:59:14;;;;;;;11.30;7.72;;;19.20;99.90;;;;;;5088416;28;20020;-60
2021/06/24 05:01:40;;;;;;;11.48;7.63;;;19.10;99.90;;;;;;5070435;28;20056;-60
2021/06/24 05:04:06;;;;;;;10.70;8.00;;;19.10;99.90;;;;;;5088553;28;20024;-60
2021/06/24 05:06:31;;;;;;;11.57;8.30;;;19.10;99.90;;;;;;5088911;28;20063;-60
2021/06/24 05:08:57;;;;;;;9.60;7.28;;;19.00;99.90;;;;;;5070904;28;20040;-60
2021/06/24 05:11:23;;;;;;;9.60;7.30;;;19.20;99.90;;;;;;5082635;28;20072;-61
2021/06/24 05:13:49;;;;;;;11.13;7.70;;;19.20;99.90;;;;;;5092868;28;20031;-61
2021/06/24 05:16:15;;;;;;;13.35;7.95;;;19.20;99.90;;;;;;5091997;28;20333;-61
2021/06/24 05:18:42;;;;;;;14.07;8.00;;;19.20;99.90;;;;;;5092540;28;20116;-61
2021/06/24 05:21:07;;;;;;;11.98;7.78;;;19.30;99.90;;;;;;5073503;28;20024;-61
2021/06/24 05:23:33;;;;;;;10.77;7.25;;;19.30;99.90;;;;;;5073957;28;20177;-61
2021/06/24 05:25:59;;;;;;;12.43;7.97;;;19.30;99.90;;;;;;5092050;28;20024;-60
2021/06/24 05:28:25;;;;;;;13.90;7.88;;;19.20;99.90;;;;;;5091263;28;20043;-61
2021/06/24 05:30:51;;;;;;;10.98;8.40;;;19.20;99.90;;;;;;5091402;28;20042;-61
2021/06/24 05:33:17;;;;;;;9.73;7.75;;;19.30;99.90;;;;;;5090274;28;20431;-61
2021/06/24 05:35:46;;;;;;;6.43;5.75;;;19.20;99.90;;;;;;5069317;28;20039;-64
2021/06/24 05:38:12;;;;;;;8.90;5.90;;;19.40;99.90;;;;;;5085185;28;20020;-63
2021/06/24 05:40:39;;;;;;;13.48;7.03;;;19.60;99.90;;;;;;5092134;28;20094;-63
2021/06/24 05:43:05;;;;;;;8.02;5.97;;;20.00;99.90;;;;;;5090162;28;20055;-64
2021/06/24 05:45:31;;;;;;;7.25;5.53;;;20.20;99.90;;;;;;5091122;28;20063;-63
2021/06/24 05:47:57;;;;;;;8.25;5.85;;;20.40;99.90;;;;;;5090801;28;20077;-63
2021/06/24 05:50:25;;;;;;;8.73;6.00;;;20.40;99.90;;;;;;5090037;28;20035;-62
2021/06/24 05:52:51;;;;;;;8.95;6.65;;;20.50;99.90;;;;;;5090619;28;20399;-63
2021/06/24 05:55:19;;;;;;;13.15;6.60;;;20.50;99.90;;;;;;5071373;28;20039;-67
2021/06/24 05:57:45;;;;;;;8.55;4.72;;;20.40;99.90;;;;;;5090063;28;20055;-62
2021/06/24 06:00:13;;;;;;;5.78;4.20;;;20.50;99.90;;;;;;5089579;28;20039;-62
2021/06/24 06:02:39;;;;;;;5.85;4.30;;;21.10;99.90;;;;;;5071933;28;20031;-61
2021/06/24 06:05:06;;;;;;;4.63;4.07;;;21.50;99.90;;;;;;5089983;28;20072;-65
2021/06/24 06:07:31;;;;;;;9.52;5.78;;;21.90;99.90;;;;;;5089671;28;20036;-63
2021/06/24 06:10:07;;;;;;;6.80;4.43;;;22.10;99.90;;;;;;5089976;28;20110;-63
2021/06/24 06:12:33;;;;;;;10.55;6.53;;;22.30;99.90;;;;;;5071564;28;20091;-63
2021/06/24 06:14:59;;;;;;;10.90;6.72;;;22.00;99.90;;;;;;5089810;28;20043;-63
2021/06/24 06:17:24;;;;;;;7.30;6.60;;;21.40;99.90;;;;;;5089476;28;20040;-66
2021/06/24 06:19:50;;;;;;;8.75;6.85;;;21.00;99.90;;;;;;5071584;28;20052;-64
2021/06/24 06:22:16;;;;;;;8.68;6.57;;;20.80;99.90;;;;;;5069602;28;20028;-65
2021/06/24 06:24:44;;;;;;;8.45;7.55;;;20.60;99.90;;;;;;5089449;28;20134;-63
2021/06/24 06:27:09;;;;;;;8.85;6.78;;;20.50;99.90;;;;;;5070314;28;20036;-62
2021/06/24 06:29:35;;;;;;;7.20;5.55;;;20.30;99.90;;;;;;5089571;28;20036;-64
2021/06/24 06:32:01;;;;;;;8.15;6.63;;;20.40;99.90;;;;;;5089654;28;20024;-63
2021/06/24 06:34:27;;;;;;;8.20;6.65;;;20.40;99.90;;;;;;5088937;28;20028;-63
2021/06/24 06:36:58;;;;;;;7.80;6.03;;;20.30;99.90;;;;;;5071064;28;20024;-63
2021/06/24 06:39:24;;;;;;;7.95;7.15;;;20.60;99.90;;;;;;5088838;28;20059;-64
2021/06/24 06:41:50;;;;;;;7.40;6.18;;;20.40;99.90;;;;;;5089565;28;20097;-62
2021/06/24 06:44:15;;;;;;;8.82;7.35;;;20.30;99.90;;;;;;5088970;28;20035;-63
2021/06/24 06:46:41;;;;;;;10.85;7.85;;;20.40;99.90;;;;;;5089274;28;20035;-63
2021/06/24 06:49:07;;;;;;;14.02;8.20;;;20.40;99.90;;;;;;5088930;28;20055;-63
2021/06/24 06:51:32;;;;;;;5.80;4.53;;;20.40;99.90;;;;;;5071513;28;20024;-63
2021/06/24 06:53:58;;;;;;;7.13;4.47;;;20.80;99.90;;;;;;5089222;28;20036;-67
2021/06/24 06:56:23;;;;;;;6.75;4.60;;;21.40;99.90;;;;;;5070133;28;20032;-64
2021/06/24 06:58:49;;;;;;;11.10;5.60;;;21.80;99.90;;;;;;5089306;28;20118;-65
2021/06/24 07:01:15;;;;;;;7.57;3.90;;;22.10;99.90;;;;;;5070482;28;20446;-63
2021/06/24 07:03:41;;;;;;;8.05;5.18;;;22.40;99.90;;;;;;5089734;28;20059;-63
2021/06/24 07:06:06;;;;;;;6.85;5.80;;;22.50;99.90;;;;;;5088549;28;20111;-65
2021/06/24 07:08:32;;;;;;;8.73;4.75;;;22.50;99.90;;;;;;5089423;28;20038;-63
2021/06/24 07:10:58;;;;;;;10.57;5.22;;;22.50;99.90;;;;;;5070843;28;20119;-64
2021/06/24 07:13:23;;;;;;;8.50;4.78;;;22.50;99.90;;;;;;5070314;28;20055;-64
2021/06/24 07:15:50;;;;;;;9.43;5.03;;;22.40;99.90;;;;;;5071207;28;20365;-64
2021/06/24 07:18:16;;;;;;;8.05;5.05;;;22.50;99.90;;;;;;5070230;28;20028;-66
2021/06/24 07:20:42;;;;;;;8.10;5.15;;;22.50;99.90;;;;;;5089644;28;20064;-65
2021/06/24 07:23:08;;;;;;;6.40;5.15;;;22.60;99.90;;;;;;5070601;28;20484;-64
2021/06/24 07:25:34;;;;;;;5.80;5.00;;;22.60;99.90;;;;;;5089074;28;20028;-64
2021/06/24 07:28:00;;;;;;;7.15;4.85;;;22.60;99.90;;;;;;5071007;28;20496;-65
2021/06/24 07:30:32;;;;;;;4.85;4.38;;;22.50;99.90;;;;;;5069318;28;20481;-69
2021/06/24 07:32:58;;;;;;;7.28;4.82;;;22.60;99.90;;;;;;5069841;28;20038;-64
2021/06/24 07:35:23;;;;;;;7.28;5.28;;;22.50;99.90;;;;;;5069017;28;20709;-64
2021/06/24 07:37:49;;;;;;;10.68;5.05;;;22.50;99.90;;;;;;5088214;28;20085;-64
2021/06/24 07:40:15;;;;;;;10.40;7.32;;;22.70;99.90;;;;;;5087337;28;20112;-64
2021/06/24 07:42:41;;;;;;;5.40;4.80;;;22.60;99.90;;;;;;5087703;28;20028;-65
2021/06/24 07:45:08;;;;;;;11.43;5.30;;;22.50;99.90;;;;;;5087326;28;20190;-65
2021/06/24 07:47:33;;;;;;;9.82;5.40;;;22.40;99.90;;;;;;5069229;28;20193;-66
2021/06/24 07:49:59;;;;;;;5.93;5.07;;;22.50;99.90;;;;;;5087899;28;20122;-64
2021/06/24 07:52:25;;;;;;;8.57;6.13;;;22.50;99.90;;;;;;5087479;28;20423;-62
2021/06/24 07:54:51;;;;;;;10.23;6.15;;;22.50;99.90;;;;;;5068917;28;20516;-63
2021/06/24 07:57:16;;;;;;;10.93;6.90;;;22.50;99.90;;;;;;5086759;28;20032;-62
2021/06/24 07:59:42;;;;;;;8.90;6.25;;;22.40;99.90;;;;;;5068806;28;20081;-62
2021/06/24 08:02:09;;;;;;;13.05;6.75;;;22.50;99.90;;;;;;5068477;28;20036;-67
2021/06/24 08:04:34;;;;;;;11.63;6.28;;;22.10;99.90;;;;;;5069439;28;20028;-62
2021/06/24 08:07:00;;;;;;;8.40;6.63;;;22.20;99.90;;;;;;5086975;28;20482;-66
2021/06/24 08:09:26;;;;;;;8.80;6.53;;;22.30;99.90;;;;;;5087838;28;20036;-64
2021/06/24 08:11:52;;;;;;;14.00;6.93;;;22.40;99.90;;;;;;5069768;28;20064;-65
2021/06/24 08:14:18;;;;;;;14.20;7.35;;;22.50;99.90;;;;;;5068460;28;20513;-62
2021/06/24 08:16:43;;;;;;;10.73;7.60;;;22.50;99.90;;;;;;5087697;28;20422;-62
2021/06/24 08:19:09;;;;;;;10.88;6.60;;;22.50;99.90;;;;;;5087600;28;20056;-65
2021/06/24 08:21:35;;;;;;;10.18;6.90;;;22.50;99.90;;;;;;5068859;28;20020;-62
2021/06/24 08:24:00;;;;;;;13.57;7.63;;;22.40;99.90;;;;;;5062520;28;20036;-63
2021/06/24 08:26:26;;;;;;;7.60;6.45;;;22.30;99.90;;;;;;5069319;28;20032;-63
2021/06/24 08:28:52;;;;;;;8.70;6.07;;;22.10;99.90;;;;;;5067877;28;20401;-72
2021/06/24 08:31:18;;;;;;;9.23;8.05;;;22.20;99.90;;;;;;5066750;28;20379;-64
2021/06/24 08:33:43;;;;;;;8.18;7.28;;;22.10;99.90;;;;;;5068114;28;20038;-63
2021/06/24 08:36:09;;;;;;;8.82;6.90;;;22.00;99.90;;;;;;5067842;28;20028;-64
2021/06/24 08:38:35;;;;;;;7.80;6.35;;;22.10;99.90;;;;;;5087887;28;20035;-63
2021/06/24 08:41:01;;;;;;;7.88;6.65;;;22.30;99.90;;;;;;5088382;28;20032;-63
2021/06/24 08:43:27;;;;;;;14.18;6.22;;;22.30;99.90;;;;;;5084611;28;20138;-62
2021/06/24 08:46:00;;;;;;;8.88;6.85;;;22.40;99.90;;;;;;5089364;28;20020;-66
2021/06/24 08:48:26;;;;;;;9.93;7.57;;;22.50;99.90;;;;;;5091937;28;20174;-64
2021/06/24 08:50:52;;;;;;;12.23;7.03;;;22.50;99.90;;;;;;5073649;28;20115;-64
2021/06/24 08:53:19;;;;;;;7.10;6.25;;;22.50;99.90;;;;;;5091132;28;20024;-64
2021/06/24 08:55:46;;;;;;;10.65;6.53;;;22.50;99.90;;;;;;5091787;28;20096;-67
2021/06/24 08:58:13;;;;;;;10.07;6.05;;;22.40;99.90;;;;;;5091206;28;20020;-63
2021/06/24 09:00:38;;;;;;;9.10;7.85;;;22.30;99.90;;;;;;5092048;28;20030;-64
2021/06/24 09:03:21;;;;;;;9.75;7.68;;;22.20;99.90;;;;;;5073385;28;20115;-62
2021/06/24 09:05:52;;;;;;;7.70;6.60;;;22.00;99.90;;;;;;5091916;28;20020;-50
2021/06/24 09:08:37;;;;;;;9.60;7.47;;;22.00;99.90;;;;;;5091241;28;20036;-50
2021/06/24 09:11:16;;;;;;;11.98;6.88;;;22.20;99.90;;;;;;5073471;28;20168;-49
2021/06/24 09:13:44;;;;;;;7.93;6.97;;;22.40;99.90;;;;;;5091131;28;20358;-50
2021/06/24 09:16:24;;;;;;;18.67;9.10;;;22.50;99.90;;;;;;5091020;28;20101;-59
2021/06/24 09:18:51;;;;;;;16.38;9.65;;;22.60;99.90;;;;;;5091660;28;20024;-50
2021/06/24 09:21:24;;;;;;;13.30;8.30;;;22.70;99.90;;;;;;5090892;28;20106;-50
2021/06/24 09:23:53;;;;;;;21.08;9.13;;;22.70;99.90;;;;;;5091576;28;20377;-50
2021/06/24 09:26:20;;;;;;;10.25;7.28;;;22.60;99.90;;;;;;5072138;28;20036;-51
2021/06/24 09:28:51;;;;;;;13.02;8.30;;;22.50;99.90;;;;;;5091019;28;20035;-50
2021/06/24 09:31:29;;;;;;;10.98;7.65;;;22.60;99.90;;;;;;5072124;28;20448;-50
2021/06/24 09:33:56;;;;;;;13.00;8.30;;;22.60;99.90;;;;;;5073021;28;20064;-51
2021/06/24 09:36:33;;;;;;;10.65;7.28;;;22.60;99.90;;;;;;5090741;28;20020;-50
2021/06/24 09:38:58;;;;;;;9.68;8.73;;;22.50;99.90;;;;;;5072898;28;20560;-50
2021/06/24 09:41:24;;;;;;;9.07;7.78;;;22.50;99.90;;;;;;5089802;28;20115;-58
2021/06/24 09:43:50;;;;;;;9.00;7.03;;;22.50;99.90;;;;;;5090823;28;20039;-52
2021/06/24 09:46:18;;;;;;;10.93;7.55;;;22.40;99.90;;;;;;5071554;28;20020;-53
2021/06/24 09:48:52;;;;;;;8.30;7.15;;;22.50;99.90;;;;;;5089190;28;20050;-57
2021/06/24 09:51:26;;;;;;;7.88;7.07;;;22.50;99.90;;;;;;5090538;28;20058;-54
2021/06/24 09:54:18;;;;;;;10.43;7.40;;;22.50;99.90;;;;;;5071900;28;20491;-54
2021/06/24 09:56:46;;;;;;;9.25;6.95;;;22.60;99.90;;;;;;5068430;28;20051;-54
2021/06/24 09:59:14;;;;;;;8.38;7.53;;;22.60;99.90;;;;;;5089439;28;20103;-54
2021/06/24 10:01:50;;;;;;;8.95;7.80;;;22.60;99.90;;;;;;5089455;28;20093;-53
2021/06/24 10:04:31;;;;;;;10.57;6.93;;;22.60;99.90;;;;;;5070975;28;20403;-53
2021/06/24 10:06:59;;;;;;;9.60;6.68;;;22.60;99.90;;;;;;5089523;28;20130;-54
2021/06/24 10:09:25;;;;;;;12.90;6.82;;;22.60;99.90;;;;;;5067978;28;20062;-53
2021/06/24 10:11:52;;;;;;;18.52;7.50;;;22.60;99.90;;;;;;5055245;28;20024;-52
2021/06/24 10:14:19;;;;;;;8.68;7.10;;;22.50;99.90;;;;;;5089781;28;20024;-54
2021/06/24 10:16:54;;;;;;;8.15;7.30;;;22.50;99.90;;;;;;5089437;28;20104;-56
2021/06/24 10:19:25;;;;;;;7.70;6.35;;;22.50;99.90;;;;;;5071201;28;20124;-53
2021/06/24 10:21:54;;;;;;;7.13;6.43;;;22.60;99.90;;;;;;5071837;28;20024;-53
2021/06/24 10:24:26;;;;;;;7.88;7.07;;;22.60;99.90;;;;;;5071283;28;20358;-53
2021/06/24 10:26:54;;;;;;;8.35;6.82;;;22.50;99.90;;;;;;5071449;28;20083;-53
2021/06/24 10:29:22;;;;;;;11.55;7.22;;;22.50;99.90;;;;;;5089349;28;20047;-53
2021/06/24 10:31:52;;;;;;;8.38;6.97;;;22.60;99.90;;;;;;5089703;28;20016;-52
2021/06/24 10:34:20;;;;;;;7.43;6.60;;;22.50;99.90;;;;;;5089430;28;20023;-53
2021/06/24 10:37:12;;;;;;;18.27;7.05;;;22.60;99.90;;;;;;5090223;28;20063;-54
2021/06/24 10:39:40;;;;;;;9.60;7.05;;;22.60;99.90;;;;;;5089968;28;20419;-53
2021/06/24 10:42:11;;;;;;;7.47;6.28;;;22.60;99.90;;;;;;5088585;28;20169;-56
2021/06/24 10:45:05;;;;;;;8.77;6.72;;;22.60;99.90;;;;;;5070970;28;20028;-53
2021/06/24 10:47:33;;;;;;;8.05;6.93;;;22.60;99.90;;;;;;5089129;28;20044;-53
2021/06/24 10:50:30;;;;;;;7.32;6.63;;;22.60;99.90;;;;;;5089504;28;20050;-53
2021/06/24 10:53:22;;;;;;;7.55;6.03;;;22.60;99.90;;;;;;5089867;28;20035;-57
2021/06/24 10:55:52;;;;;;;11.90;7.13;;;22.60;99.90;;;;;;5071404;28;20123;-53
2021/06/24 10:58:18;;;;;;;16.85;8.07;;;22.60;99.90;;;;;;5070156;28;20073;-53
2021/06/24 11:00:45;;;;;;;9.88;6.18;;;22.60;99.90;;;;;;5071097;28;20024;-52
2021/06/24 11:03:23;;;;;;;10.32;6.93;;;22.60;99.90;;;;;;5070595;28;20066;-52
2021/06/24 11:05:52;;;;;;;15.43;8.60;;;22.70;99.90;;;;;;5071145;28;20028;-55
2021/06/24 11:08:30;;;;;;;12.30;7.22;;;22.70;99.90;;;;;;5070190;28;20032;-54
2021/06/24 11:11:00;;;;;;;9.88;6.57;;;22.60;99.90;;;;;;5089683;28;20039;-54
2021/06/24 11:13:35;;;;;;;8.75;6.93;;;22.70;99.90;;;;;;5088690;28;20501;-54
2021/06/24 11:16:06;;;;;;;7.00;6.30;;;22.80;99.90;;;;;;5089288;28;20419;-54
2021/06/24 11:18:31;;;;;;;6.13;5.47;;;22.70;99.90;;;;;;5089130;28;20131;-54
2021/06/24 11:21:00;;;;;;;7.90;5.68;;;22.70;99.90;;;;;;5070241;28;20142;-54
2021/06/24 11:23:33;;;;;;;8.45;5.95;;;22.60;99.90;;;;;;5070452;28;20086;-54
2021/06/24 11:26:11;;;;;;;6.38;5.78;;;22.60;99.90;;;;;;5089028;28;20035;-54
2021/06/24 11:28:46;;;;;;;9.52;6.35;;;22.60;99.90;;;;;;5089154;28;20039;-55
2021/06/24 11:31:13;;;;;;;9.00;6.10;;;22.70;99.90;;;;;;5088730;28;20028;-53
2021/06/24 11:33:47;;;;;;;8.48;6.07;;;22.70;99.90;;;;;;5088986;28;20046;-53
2021/06/24 11:36:17;;;;;;;9.27;6.00;;;22.70;99.90;;;;;;5088579;28;20024;-54
2021/06/24 11:38:49;;;;;;;16.45;5.93;;;22.70;99.90;;;;;;5070261;28;20307;-55
2021/06/24 11:41:19;;;;;;;7.97;6.05;;;22.70;99.90;;;;;;5087936;28;20036;-53
2021/06/24 11:43:59;;;;;;;8.48;6.70;;;22.70;99.90;;;;;;5069855;28;20077;-53
2021/06/24 11:46:30;;;;;;;7.45;6.70;;;22.70;99.90;;;;;;5088077;28;20032;-55
2021/06/24 12:05:13;;;;;;;9.70;6.05;;;22.60;99.90;;;;;;5089325;28;20032;-53
2021/06/24 12:07:40;;;;;;;5.90;5.20;;;22.80;99.90;;;;;;5089630;28;20047;-53
2021/06/24 12:10:10;;;;;;;10.10;6.10;;;22.80;99.90;;;;;;5089878;28;20485;-52
2021/06/24 12:12:41;;;;;;;10.52;5.70;;;22.60;99.90;;;;;;5071863;28;20031;-52
2021/06/24 12:15:10;;;;;;;6.25;5.18;;;22.60;99.90;;;;;;5071141;28;20028;-52
2021/06/24 12:17:38;;;;;;;7.63;5.10;;;22.50;99.90;;;;;;5054848;28;20036;-52
2021/06/24 12:20:12;;;;;;;5.63;5.13;;;22.40;99.90;;;;;;5089956;28;20063;-52
2021/06/24 12:23:02;;;;;;;6.47;4.63;;;22.40;99.90;;;;;;5092721;28;20034;-62
2021/06/24 12:25:34;;;;;;;8.13;5.30;;;22.20;99.90;;;;;;5092913;28;20107;-62
2021/06/24 12:28:02;;;;;;;6.78;5.60;;;21.80;99.90;;;;;;5093158;28;20302;-63
2021/06/24 12:30:35;;;;;;;7.80;6.38;;;21.50;99.90;;;;;;5092815;28;20039;-62
2021/06/24 12:33:06;;;;;;;8.77;5.72;;;21.20;99.90;;;;;;5072471;28;20024;-62
2021/06/24 12:35:36;;;;;;;7.78;5.68;;;21.20;99.90;;;;;;5073908;28;20111;-62
2021/06/24 12:38:04;;;;;;;6.55;5.78;;;21.30;99.90;;;;;;5075282;28;20149;-66
2021/06/24 12:40:34;;;;;;;5.60;4.95;;;21.10;99.90;;;;;;5093016;28;20024;-63
2021/06/24 12:43:01;;;;;;;10.25;5.75;;;21.00;99.90;;;;;;5075185;28;20048;-63
2021/06/24 12:45:29;;;;;;;7.32;5.88;;;21.00;99.90;;;;;;5092823;28;20017;-64
2021/06/24 12:47:56;;;;;;;6.78;6.05;;;21.00;99.90;;;;;;5093642;28;20036;-62
2021/06/24 12:50:28;;;;;;;7.57;6.15;;;21.00;99.90;;;;;;5074342;28;20063;-62
2021/06/24 12:52:57;;;;;;;7.55;5.82;;;21.00;99.90;;;;;;5074864;28;20079;-63
2021/06/24 12:55:38;;;;;;;6.78;5.97;;;21.10;99.90;;;;;;5074096;28;20023;-62
2021/06/24 12:58:36;;;;;;;8.25;5.85;;;21.00;99.90;;;;;;5074652;28;20038;-62
2021/06/24 13:01:13;;;;;;;6.97;5.80;;;21.10;99.90;;;;;;5092586;28;20450;-64
2021/06/24 13:03:40;;;;;;;11.10;6.22;;;21.40;99.90;;;;;;5093054;28;20099;-62